Terminal Aerodrome Forecast
Issued by NWS Quad Cities IA IL

Home | Current Version | Previous Version | Text Only | Print | Product List | Glossary On
Versions: 1 2 3 4 5 6 7 8 9 10 11 12 13 14 15
000
FTUS43 KDVN 250520
TAFMLI
TAF
KMLI 250520Z 2506/2606 19005KT P6SM BKN200
     FM251400 17010KT P6SM SCT050 BKN120 PROB30 2515/2518 -TSRA
      BKN050CB
     FM251800 16012KT P6SM BKN040
      TEMPO 2518/2522 4SM TSRA BR BKN025CB
     FM260100 18007KT P6SM BKN050=

USA.gov is the U.S. government's official web portal to all federal, state and local government web resources and services.